Latest Coastal Weather Observations for Derby

IDW60701

Issued at 3:12 pm WST Saturday 13 February 2016 (issued every 10 minutes, with the page automatically refreshed every 10 minutes)

About coastal observations | Map of coastal stations | Coastal observations for WA | Marine services | Other Formats
Station Details ID: 003032 Name: DERBY AERO Lat: -17.37 Lon: 123.66 Height: 6.2 m
Data from the previous 72 hours. | See also: Recent months at Derby
Date/Time
WST
Temp

°C
Wind Pressure Rain
since 9am
mm
Weather Cloud Vis
km
Sea
Height
m
Swell
Dir
 
Speed
knots
Gust
knots
hPa Trend Height
m
Period
s
Dir
13/03:00pm 38.5 NNW 8 13 1006.6 - 0.0 - - - - - - -
13/02:30pm 38.6 NNW 9 13 1006.7 - 0.0 - - - - - - -
13/02:00pm 38.0 NW 9 13 1007.1 - 0.0 - - - - - - -
13/01:30pm 37.4 NNW 10 15 1007.3 - 0.0 - - - - - - -
13/01:00pm 38.3 W 6 10 1007.7 - 0.0 - - - - - - -
13/12:30pm 36.3 NNW 7 11 1008.0 - 0.0 - - - - - - -
13/12:00pm 36.4 WNW 6 11 1008.6 - 0.0 - - - - - - -
13/11:30am 36.3 W 6 10 1009.0 - 0.0 - - - - - - -
13/11:00am 33.9 W 6 9 1009.3 - 0.0 - - - - - - -
13/10:30am 33.5 WSW 5 9 1009.8 - 0.0 - - - - - - -
13/10:00am 33.0 W 7 10 1010.2 - 0.0 - - - - - - -
13/09:30am 31.9 WNW 8 11 1010.4 - 0.0 - - - - - - -
13/09:00am 31.3 WNW 7 11 1010.9 - 1.0 - - - - - - -
13/08:30am 31.5 NW 9 12 1011.0 - 1.0 - - - - - - -
13/08:00am 30.9 WNW 7 10 1010.8 - 1.0 - - - - - - -
13/07:30am 30.9 W 8 11 1010.5 - 1.0 - - - - - - -
13/07:00am 29.7 W 4 5 1010.1 - 1.0 - - - - - - -
13/06:30am 28.7 CALM 0 0 1010.0 - 1.0 - - - - - - -
13/06:00am 28.2 NW 2 3 1009.9 - 1.0 - - - - - - -
13/05:30am 28.0 N 3 4 1009.7 - 1.0 - - - - - - -
13/05:00am 27.8 NNE 6 8 1009.7 - 1.0 - - - - - - -
13/04:30am 27.8 NE 5 6 1009.3 - 1.0 - - - - - - -
13/04:00am 27.6 NE 5 7 1009.2 - 1.0 - - - - - - -
13/03:30am 27.6 ENE 5 7 1009.1 - 1.0 - - - - - - -
13/03:00am 27.5 NE 5 7 1008.8 - 1.0 - - - - - - -
13/02:30am 27.7 NE 6 8 1008.7 - 1.0 - - - - - - -
13/02:00am 28.2 NE 7 11 1008.4 - 1.0 - - - - - - -
13/01:30am 29.1 N 5 6 1008.0 - 1.0 - - - - - - -
13/01:00am 29.7 N 7 10 1008.0 - 1.0 - - - - - - -
13/12:30am 29.6 NW 9 12 1007.6 - 1.0 - - - - - - -
13/12:00am 29.6 NW 8 10 1008.1 - 1.0 - - - - - - -
 
Date/Time
WST
Temp

°C
Wind Pressure Rain
since 9am
mm
Weather Cloud Vis
km
Sea
Height
m
Swell
Dir
 
Speed
knots
Gust
knots
hPa Trend Height
m
Period
s
Dir
12/11:30pm 29.8 NNW 7 9 1008.4 - 1.0 - - - - - - -
12/11:00pm 30.1 N 10 13 1008.9 - 1.0 - - - - - - -
12/10:30pm 30.0 NNW 10 11 1008.7 - 1.0 - - - - - - -
12/10:00pm 30.1 NNW 11 15 1008.7 - 1.0 - - - - - - -
12/09:30pm 30.0 WNW 12 17 1008.8 - 0.8 - - - - - - -
12/09:00pm 30.1 SW 9 12 1009.7 - 0.8 - - - - - - -
12/08:30pm 29.4 N 6 11 1009.0 - 0.8 - - - - - - -
12/08:00pm 30.0 N 13 18 1008.5 - 0.8 - - - - - - -
12/07:30pm 29.9 N 12 15 1008.8 - 0.8 - - - - - - -
12/07:00pm 30.3 N 12 16 1008.5 - 0.8 - - - - - - -
12/06:30pm 30.7 NW 16 24 1007.2 - 0.8 - - - - - - -
12/06:28pm 30.8 NW 14 23 1007.3 - 0.8 - - - - - - -
12/06:00pm 31.9 N 8 10 1005.7 - 0.8 - - - - - - -
12/05:30pm 30.3 NNW 10 12 1005.8 - 0.8 - - - - - - -
12/05:00pm 28.6 NNE 4 7 1006.9 - 0.8 - - - - - - -
12/04:30pm 29.2 ESE 18 24 1007.2 - 0.2 - - - - - - -
12/04:00pm 29.3 S 13 18 1006.6 - 0.2 - - - - - - -
12/03:57pm 28.5 S 15 25 1006.6 - 0.2 - - - - - - -
12/03:49pm 28.4 SE 17 29 1006.7 - 0.2 - - - - - - -
12/03:30pm 28.5 SE 23 36 1007.4 - 0.0 - - - - - - -
12/03:26pm 31.6 SSE 21 35 1007.4 - 0.0 - - - - - - -
12/03:22pm 32.9 SE 17 31 1007.1 - 0.0 - - - - - - -
12/03:19pm 32.8 E 12 31 1007.4 - 0.0 - - - - - - -
12/03:16pm 35.2 NNE 9 23 1007.3 - 0.0 - - - - - - -
12/03:00pm 35.4 N 14 23 1005.2 - 0.0 - - - - - - -
12/02:30pm 36.3 NW 13 16 1004.5 - 0.0 - - - - - - -
12/02:00pm 36.6 NW 14 18 1005.1 - 0.0 - - - - - - -
12/01:30pm 35.8 NW 12 16 1005.8 - 0.0 - - - - - - -
12/01:00pm 36.1 NW 13 16 1006.2 - 0.0 - - - - - - -
12/12:30pm 35.8 NW 13 17 1006.6 - 0.0 - - - - - - -
12/12:00pm 35.5 NW 13 17 1007.1 - 0.0 - - - - - - -
12/11:30am 34.3 NW 11 16 1007.4 - 0.0 - - - - - - -
12/11:00am 34.3 N 10 15 1007.8 - 0.0 - - - - - - -
12/10:30am 34.7 NNW 9 13 1008.1 - 0.0 - - - - - - -
12/10:00am 33.5 NNW 9 13 1008.4 - 0.0 - - - - - - -
12/09:30am 33.1 NNW 9 14 1008.6 - 0.0 - - - - - - -
12/09:00am 32.3 NNW 9 12 1009.2 - 0.0 - - - - - - -
12/08:30am 31.4 NW 8 11 1009.1 - 0.0 - - - - - - -
12/08:00am 30.4 NW 8 11 1009.1 - 0.0 - - - - - - -
12/07:30am 30.3 WNW 9 12 1009.1 - 0.0 - - - - - - -
12/07:00am 30.4 NW 10 12 1008.5 - 0.0 - - - - - - -
12/06:30am 29.8 NW 9 12 1008.2 - 0.0 - - - - - - -
12/06:00am 29.4 NW 9 11 1007.7 - 0.0 - - - - - - -
12/05:30am 29.4 NW 9 12 1007.2 - 0.0 - - - - - - -
12/05:00am 29.2 NW 9 10 1007.0 - 0.0 - - - - - - -
12/04:30am 28.4 N 5 7 1007.0 - 0.0 - - - - - - -
12/04:00am 28.7 N 2 5 1006.7 - 0.0 - - - - - - -
12/03:30am 29.3 N 5 7 1006.5 - 0.0 - - - - - - -
12/03:00am 29.8 W 3 5 1006.2 - 0.0 - - - - - - -
12/02:30am 30.0 W 5 7 1006.3 - 0.0 - - - - - - -
12/02:00am 30.1 W 6 7 1006.5 - 0.0 - - - - - - -
12/01:30am 30.5 W 4 7 1006.7 - 0.0 - - - - - - -
12/01:00am 30.2 W 5 7 1006.8 - 0.0 - - - - - - -
12/12:30am 30.8 NW 3 5 1006.9 - 0.0 - - - - - - -
12/12:00am 31.3 WSW 5 7 1006.8 - 0.0 - - - - - - -
 
Date/Time
WST
Temp

°C
Wind Pressure Rain
since 9am
mm
Weather Cloud Vis
km
Sea
Height
m
Swell
Dir
 
Speed
knots
Gust
knots
hPa Trend Height
m
Period
s
Dir
11/11:30pm 31.9 SW 6 9 1007.0 - 0.0 - - - - - - -
11/11:00pm 31.2 WNW 6 7 1007.2 - 0.0 - - - - - - -
11/10:30pm 31.2 N 5 6 1007.3 - 0.0 - - - - - - -
11/10:00pm 31.1 NNE 4 7 1007.3 - 0.0 - - - - - - -
11/09:30pm 31.4 NNW 4 5 1006.8 - 0.0 - - - - - - -
11/09:00pm 31.9 N 5 7 1006.6 - 0.0 - - - - - - -
11/08:30pm 32.1 NNW 8 10 1006.2 - 0.0 - - - - - - -
11/08:00pm 32.0 NW 7 11 1005.9 - 0.0 - - - - - - -
11/07:30pm 32.4 NW 7 9 1005.6 - 0.0 - - - - - - -
11/07:00pm 33.0 NNW 9 12 1005.1 - 0.0 - - - - - - -
11/06:30pm 34.1 NNW 9 11 1004.7 - 0.0 - - - - - - -
11/06:00pm 35.2 NNW 9 11 1004.3 - 0.0 - - - - - - -
11/05:30pm 37.4 N 8 10 1004.2 - 0.0 - - - - - - -
11/05:00pm 38.2 N 7 9 1003.8 - 0.0 - - - - - - -
11/04:30pm 37.2 NE 9 13 1003.5 - 0.0 - - - - - - -
11/04:00pm 36.9 NNE 15 25 1003.6 - 0.0 - - - - - - -
11/03:57pm 35.8 NNE 12 25 1003.6 - 0.0 - - - - - - -
11/03:30pm 38.7 NNW 15 18 1003.3 - 0.0 - - - - - - -
11/03:00pm 39.2 NW 13 17 1003.4 - 0.0 - - - - - - -
11/02:30pm 39.4 NW 10 15 1003.8 - 0.0 - - - - - - -
11/02:00pm 38.8 NW 11 14 1004.2 - 0.0 - - - - - - -
11/01:30pm 38.9 WNW 7 11 1004.7 - 0.0 - - - - - - -
11/01:00pm 38.8 WSW 5 9 1005.1 - 0.0 - - - - - - -
11/12:30pm 37.6 NNW 5 9 1005.6 - 0.0 - - - - - - -
11/12:00pm 36.8 WNW 5 9 1006.1 - 0.0 - - - - - - -
11/11:30am 35.6 WNW 6 9 1006.5 - 0.0 - - - - - - -
11/11:00am 35.1 NW 8 13 1006.8 - 0.0 - - - - - - -
11/10:30am 34.3 NW 6 10 1007.2 - 0.0 - - - - - - -
11/10:00am 33.7 WNW 7 11 1007.4 - 0.0 - - - - - - -
11/09:30am 33.2 WNW 7 11 1007.6 - 0.0 - - - - - - -
11/09:00am 31.5 WNW 9 12 1007.8 - 0.0 - - - - - - -
11/08:30am 31.3 WNW 10 13 1007.8 - 0.0 - - - - - - -
11/08:00am 31.3 NW 12 15 1007.9 - 0.0 - - - - - - -
11/07:30am 30.1 WNW 9 11 1008.1 - 0.0 - - - - - - -
11/07:00am 29.5 NW 10 12 1007.8 - 0.0 - - - - - - -
11/06:30am 29.1 NW 7 8 1007.7 - 0.0 - - - - - - -
11/06:00am 28.9 WNW 5 7 1007.6 - 0.0 - - - - - - -
11/05:30am 28.7 W 4 6 1007.4 - 0.0 - - - - - - -
11/05:00am 28.0 CALM 0 0 1007.1 - 0.0 - - - - - - -
11/04:30am 28.3 CALM 0 0 1007.1 - 0.0 - - - - - - -
11/04:00am 28.6 NE 3 8 1007.0 - 0.0 - - - - - - -
11/03:30am 28.8 WSW 6 8 1006.2 - 0.0 - - - - - - -
11/03:00am 29.5 SW 7 10 1006.5 - 0.0 - - - - - - -
11/02:30am 29.6 W 6 7 1006.4 - 0.0 - - - - - - -
11/02:00am 29.9 W 6 8 1006.1 - 0.0 - - - - - - -
11/01:30am 30.3 WSW 7 8 1006.1 - 0.0 - - - - - - -
11/01:00am 30.2 WNW 6 7 1006.2 - 0.0 - - - - - - -
11/12:30am 30.6 NW 6 8 1006.4 - 0.0 - - - - - - -
11/12:00am 30.7 NW 7 8 1006.6 - 0.0 - - - - - - -
 
Date/Time
WST
Temp

°C
Wind Pressure Rain
since 9am
mm
Weather Cloud Vis
km
Sea
Height
m
Swell
Dir
 
Speed
knots
Gust
knots
hPa Trend Height
m
Period
s
Dir
10/11:30pm 31.2 NW 7 9 1006.8 - 0.0 - - - - - - -
10/11:00pm 31.6 NNW 8 11 1006.8 - 0.0 - - - - - - -
10/10:30pm 31.8 NW 8 9 1007.0 - 0.0 - - - - - - -
10/10:00pm 32.0 NNW 8 9 1007.0 - 0.0 - - - - - - -
10/09:30pm 32.2 NNW 6 7 1006.9 - 0.0 - - - - - - -
10/09:00pm 32.5 NW 4 6 1006.8 - 0.0 - - - - - - -
10/08:30pm 32.5 NNW 4 5 1006.5 - 0.0 - - - - - - -
10/08:00pm 32.6 NNW 5 7 1006.1 - 0.0 - - - - - - -
10/07:30pm 33.0 NNW 7 9 1005.6 - 0.0 - - - - - - -
10/07:00pm 33.3 NW 5 11 1005.4 - 0.0 - - - - - - -
10/06:30pm 33.2 NNW 9 11 1005.2 - 0.0 - - - - - - -
10/06:00pm 34.0 NW 13 16 1004.7 - 0.0 - - - - - - -
10/05:30pm 34.5 NW 14 18 1004.3 - 0.0 - - - - - - -
10/05:00pm 37.9 NNW 11 14 1003.9 - 0.0 - - - - - - -
10/04:30pm 37.1 N 11 14 1004.1 - 0.0 - - - - - - -
10/04:00pm 35.7 N 13 17 1004.3 - 0.0 - - - - - - -
10/03:31pm 34.6 NNE 15 25 1004.4 - 0.0 - - - - - - -
10/03:30pm 34.4 NNE 16 25 1004.4 - 0.0 - - - - - - -

Other Formats:

Comma delimited format used in spreadsheet applications
http://www.bom.gov.au/fwo/IDW60701/IDW60701.95205.axf

JavaScript Object Notation format (JSON) in row-major order
http://www.bom.gov.au/fwo/IDW60701/IDW60701.95205.json